Time;durP1;ratioP1;P1;durP2;ratioP2;P2;SDS_P1;SDS_P2;PMS_P1;PMS_P2;Temp;Humidity;BMP_temperature;BMP_pressure;BME280_temperature;BME280_humidity;BME280_pressure;Samples;Min_cycle;Max_cycle;Signal;HPM_P1;HPM_P2
2022/10/12 00:00:03;;;;;;;;;;;;;;;10.57;64.49;102655.59;5098480;28;19912;-78
2022/10/12 00:02:29;;;;;;;;;;;;;;;10.60;64.18;102649.44;5086008;28;19916;-78
2022/10/12 00:04:55;;;;;;;;;;;;;;;10.56;64.37;102648.50;5084100;28;19942;-77
2022/10/12 00:07:21;;;;;;;;;;;;;;;10.56;64.41;102653.81;5090471;28;19919;-78
2022/10/12 00:09:47;;;;;;;;;;;;;;;10.55;64.60;102654.69;5091872;28;19912;-77
2022/10/12 00:12:14;;;;;;;;;;;;;;;10.56;64.58;102648.50;5081202;28;19946;-77
2022/10/12 00:14:40;;;;;;;;;;;;;;;10.56;64.46;102648.50;5076966;28;19919;-77
2022/10/12 00:17:06;;;;;;;;;;;;;;;10.56;64.72;102645.88;5086626;28;19916;-77
2022/10/12 00:19:32;;;;;;;;;;;;;;;10.55;64.50;102645.84;5079195;28;19928;-77
2022/10/12 00:21:58;;;;;;;;;;;;;;;10.53;64.51;102643.19;5079441;28;19920;-76
2022/10/12 00:24:24;;;;;;;;;;;;;;;10.50;64.45;102637.84;5087678;28;20404;-78
2022/10/12 00:26:50;;;;;;;;;;;;;;;10.48;64.44;102645.81;5077605;28;19917;-77
2022/10/12 00:29:17;;;;;;;;;;;;;;;10.45;64.51;102645.75;5088781;28;19923;-77
2022/10/12 00:31:43;;;;;;;;;;;;;;;10.42;64.68;102642.19;5088530;28;20380;-77
2022/10/12 00:34:09;;;;;;;;;;;;;;;10.40;64.39;102643.97;5085267;28;19947;-77
2022/10/12 00:36:35;;;;;;;;;;;;;;;10.35;64.52;102642.13;5088736;28;19959;-77
2022/10/12 00:39:02;;;;;;;;;;;;;;;10.32;64.68;102644.72;5096596;28;20004;-76
2022/10/12 00:41:31;;;;;;;;;;;;;;;10.29;64.49;102647.38;5077713;28;19913;-77
2022/10/12 00:43:58;;;;;;;;;;;;;;;10.26;64.70;102647.31;5078149;28;19952;-77
2022/10/12 00:49:11;;;;;;;;;;;;;;;10.19;64.45;102642.81;5124852;27;19920;-77
2022/10/12 00:51:39;;;;;;;;;;;;;;;10.14;64.60;102640.16;5105538;28;19973;-77
2022/10/12 00:54:07;;;;;;;;;;;;;;;10.11;64.43;102639.22;5115674;27;20254;-78
2022/10/12 00:56:36;;;;;;;;;;;;;;;10.08;64.66;102639.16;5119318;28;19920;-77
2022/10/12 00:59:03;;;;;;;;;;;;;;;10.04;64.61;102638.25;5108971;28;20280;-78
2022/10/12 01:01:32;;;;;;;;;;;;;;;10.00;64.69;102636.44;5116614;28;19923;-77
2022/10/12 01:03:58;;;;;;;;;;;;;;;9.95;65.08;102631.09;5103584;28;19923;-77
2022/10/12 01:06:24;;;;;;;;;;;;;;;9.93;64.63;102634.59;5109116;27;20284;-77
2022/10/12 01:08:52;;;;;;;;;;;;;;;9.89;64.81;102636.31;5110500;27;19931;-77
2022/10/12 01:11:18;;;;;;;;;;;;;;;9.86;64.79;102629.22;5118045;28;19971;-77
2022/10/12 01:13:44;;;;;;;;;;;;;;;9.84;64.77;102633.63;5111964;28;19916;-79
2022/10/12 01:16:21;;;;;;;;;;;;;;;9.81;64.92;102630.06;5102007;28;19923;-77
2022/10/12 01:21:26;;;;;;;;;;;;;;;9.74;64.71;102622.91;5087743;27;19947;-78
2022/10/12 01:26:44;;;;;;;;;;;;;;;9.68;64.69;102621.97;5118563;27;19916;-78
2022/10/12 01:29:24;;;;;;;;;;;;;;;9.65;65.19;102618.38;5094089;28;19961;-78
2022/10/12 01:31:52;;;;;;;;;;;;;;;9.61;64.83;102614.81;5094762;28;19935;-77
2022/10/12 01:34:38;;;;;;;;;;;;;;;9.61;65.09;102613.91;5090639;28;19919;-77
2022/10/12 01:37:24;;;;;;;;;;;;;;;9.58;64.88;102614.75;5088372;28;19912;-78
2022/10/12 01:39:53;;;;;;;;;;;;;;;9.54;65.14;102616.50;5090426;28;20022;-77
2022/10/12 01:42:25;;;;;;;;;;;;;;;9.51;65.13;102608.50;5092370;28;19916;-78
2022/10/12 01:44:59;;;;;;;;;;;;;;;9.51;65.41;102612.94;5089557;28;19916;-77
2022/10/12 01:47:25;;;;;;;;;;;;;;;9.50;65.00;102608.50;5087252;28;19923;-77
2022/10/12 01:49:52;;;;;;;;;;;;;;;9.47;65.08;102608.44;5081983;28;20370;-77
2022/10/12 01:52:38;;;;;;;;;;;;;;;9.45;65.29;102607.56;5087487;28;19955;-77
2022/10/12 01:55:24;;;;;;;;;;;;;;;9.41;65.15;102605.72;5102234;28;20057;-78
2022/10/12 01:58:07;;;;;;;;;;;;;;;9.38;65.33;102603.91;5075744;28;19923;-77
2022/10/12 02:00:40;;;;;;;;;;;;;;;9.36;65.37;102606.56;5080675;28;19924;-77
2022/10/12 02:03:15;;;;;;;;;;;;;;;9.33;65.23;102601.22;5086716;28;19916;-78
2022/10/12 02:05:47;;;;;;;;;;;;;;;9.31;65.17;102597.66;5089868;28;20000;-78
2022/10/12 02:08:19;;;;;;;;;;;;;;;9.32;65.06;102595.91;5072277;28;20378;-77
2022/10/12 02:10:48;;;;;;;;;;;;;;;9.30;65.30;102590.59;5075867;28;20040;-77
2022/10/12 02:13:17;;;;;;;;;;;;;;;9.29;64.92;102588.81;5083562;28;19924;-78
2022/10/12 02:15:43;;;;;;;;;;;;;;;9.27;65.35;102587.94;5088937;28;19917;-78
2022/10/12 02:18:13;;;;;;;;;;;;;;;9.26;65.21;102594.06;5088006;28;19916;-77
2022/10/12 02:20:39;;;;;;;;;;;;;;;9.27;65.10;102593.22;5076121;28;19916;-78
2022/10/12 02:23:06;;;;;;;;;;;;;;;9.27;65.03;102587.03;5087256;28;19924;-77
2022/10/12 02:25:33;;;;;;;;;;;;;;;9.27;65.34;102587.94;5085146;28;19924;-78
2022/10/12 02:28:04;;;;;;;;;;;;;;;9.24;65.12;102582.56;5088020;28;20269;-78
2022/10/12 02:30:33;;;;;;;;;;;;;;;9.25;64.94;102581.72;5088618;28;19912;-77
2022/10/12 02:33:11;;;;;;;;;;;;;;;9.20;65.59;102578.13;5085660;28;19916;-77
2022/10/12 02:35:42;;;;;;;;;;;;;;;9.17;65.31;102576.31;5085269;28;19962;-77
2022/10/12 02:38:28;;;;;;;;;;;;;;;9.19;65.37;102576.34;5072755;28;19920;-77
2022/10/12 02:40:59;;;;;;;;;;;;;;;9.16;65.40;102573.63;5067867;28;19916;-77
2022/10/12 02:43:31;;;;;;;;;;;;;;;9.14;64.99;102572.75;5068885;28;19963;-76
2022/10/12 02:45:59;;;;;;;;;;;;;;;9.12;65.02;102563.91;5063186;28;19927;-76
2022/10/12 02:48:25;;;;;;;;;;;;;;;9.17;65.35;102568.41;5068076;28;19917;-78
2022/10/12 02:50:54;;;;;;;;;;;;;;;9.16;65.00;102563.06;5066970;28;19979;-77
2022/10/12 02:53:22;;;;;;;;;;;;;;;9.14;64.69;102567.47;5069619;28;19932;-77
2022/10/12 02:55:49;;;;;;;;;;;;;;;9.12;64.89;102558.59;5074005;28;19925;-78
2022/10/12 02:58:15;;;;;;;;;;;;;;;9.08;64.69;102565.59;5072222;28;19985;-78
2022/10/12 03:00:41;;;;;;;;;;;;;;;9.05;64.67;102566.47;5068588;28;19947;-78
2022/10/12 03:03:07;;;;;;;;;;;;;;;8.96;65.23;102560.16;5065826;28;19916;-78
2022/10/12 03:05:33;;;;;;;;;;;;;;;8.90;65.34;102553.91;5072177;28;19935;-78
2022/10/12 03:07:59;;;;;;;;;;;;;;;8.89;64.84;102562.69;5074133;28;19917;-78
2022/10/12 03:10:25;;;;;;;;;;;;;;;8.88;65.47;102562.69;5070547;28;19916;-78
2022/10/12 03:12:52;;;;;;;;;;;;;;;8.86;65.51;102556.47;5071917;28;20015;-78
2022/10/12 03:15:19;;;;;;;;;;;;;;;8.83;65.58;102559.09;5071179;28;19923;-77
2022/10/12 03:17:45;;;;;;;;;;;;;;;8.80;65.73;102556.38;5065386;28;20456;-78
2022/10/12 03:20:11;;;;;;;;;;;;;;;8.77;65.29;102557.22;5075059;28;19916;-79
2022/10/12 03:22:37;;;;;;;;;;;;;;;8.77;65.56;102561.63;5074085;28;19916;-78
2022/10/12 03:25:03;;;;;;;;;;;;;;;8.74;65.11;102547.50;5071577;28;20409;-77
2022/10/12 03:27:29;;;;;;;;;;;;;;;8.72;65.80;102551.00;5072717;28;19939;-77
2022/10/12 03:29:55;;;;;;;;;;;;;;;8.70;65.68;102556.25;5069700;28;19916;-78
2022/10/12 03:32:21;;;;;;;;;;;;;;;8.69;65.68;102554.47;5071454;28;19998;-78
2022/10/12 03:34:47;;;;;;;;;;;;;;;8.67;65.78;102561.50;5073770;28;19916;-78
2022/10/12 03:37:13;;;;;;;;;;;;;;;8.66;65.49;102549.16;5071552;28;19923;-78
2022/10/12 03:39:39;;;;;;;;;;;;;;;8.64;65.33;102553.53;5069164;28;19916;-79
2022/10/12 03:42:05;;;;;;;;;;;;;;;8.64;65.47;102552.66;5065626;28;19927;-79
2022/10/12 03:44:31;;;;;;;;;;;;;;;8.65;65.73;102559.69;5072259;28;20011;-78
2022/10/12 03:46:57;;;;;;;;;;;;;;;8.65;65.47;102550.03;5071988;28;19931;-78
2022/10/12 03:49:23;;;;;;;;;;;;;;;8.65;65.88;102547.38;5069061;28;20026;-79
2022/10/12 03:51:49;;;;;;;;;;;;;;;8.67;65.98;102550.03;5073742;28;19990;-79
2022/10/12 03:54:15;;;;;;;;;;;;;;;8.67;66.12;102550.03;5071398;28;19913;-79
2022/10/12 03:56:41;;;;;;;;;;;;;;;8.67;65.80;102548.28;5075249;28;19913;-79
2022/10/12 03:59:07;;;;;;;;;;;;;;;8.67;65.77;102555.31;5072760;28;19916;-79
2022/10/12 04:01:33;;;;;;;;;;;;;;;8.67;65.71;102564.16;5081829;28;20316;-78
2022/10/12 04:03:59;;;;;;;;;;;;;;;8.69;65.78;102559.75;5074624;28;19958;-78
2022/10/12 04:06:25;;;;;;;;;;;;;;;8.67;65.21;102548.28;5074691;28;20011;-78
2022/10/12 04:08:51;;;;;;;;;;;;;;;8.68;65.82;102557.09;5074003;28;19913;-78
2022/10/12 04:11:19;;;;;;;;;;;;;;;8.65;65.35;102557.94;5074309;28;19913;-78
2022/10/12 04:13:45;;;;;;;;;;;;;;;8.65;65.89;102554.41;5074472;28;19962;-79
2022/10/12 04:16:14;;;;;;;;;;;;;;;8.63;65.76;102558.78;5072953;28;19920;-78
2022/10/12 04:18:40;;;;;;;;;;;;;;;8.63;65.55;102557.03;5072001;28;20389;-78
2022/10/12 04:21:09;;;;;;;;;;;;;;;8.63;65.54;102557.03;5073262;28;20037;-79
2022/10/12 04:23:35;;;;;;;;;;;;;;;8.63;65.91;102559.66;5072410;28;20381;-79
2022/10/12 04:26:01;;;;;;;;;;;;;;;8.61;65.41;102558.78;5073349;28;20302;-79
2022/10/12 04:28:27;;;;;;;;;;;;;;;8.61;65.68;102553.50;5073848;28;20453;-79
2022/10/12 04:30:53;;;;;;;;;;;;;;;8.58;65.20;102550.78;5072593;28;20332;-79
2022/10/12 04:33:19;;;;;;;;;;;;;;;8.58;65.77;102553.41;5071844;28;19916;-78
2022/10/12 04:35:45;;;;;;;;;;;;;;;8.58;65.60;102553.41;5072927;28;19927;-78
2022/10/12 04:38:12;;;;;;;;;;;;;;;8.58;66.00;102545.50;5072970;28;19916;-78
2022/10/12 04:40:38;;;;;;;;;;;;;;;8.57;66.13;102544.63;5068872;28;19916;-79
2022/10/12 04:43:04;;;;;;;;;;;;;;;8.59;65.43;102544.63;5072023;28;20328;-79
2022/10/12 04:45:30;;;;;;;;;;;;;;;8.59;65.98;102544.63;5070799;28;20019;-78
2022/10/12 04:47:56;;;;;;;;;;;;;;;8.61;66.01;102547.28;5071705;28;19916;-78
2022/10/12 04:50:23;;;;;;;;;;;;;;;8.61;66.05;102544.66;5069850;28;19924;-78
2022/10/12 04:52:49;;;;;;;;;;;;;;;8.63;66.13;102540.28;5067881;28;19974;-79
2022/10/12 04:55:15;;;;;;;;;;;;;;;8.63;65.44;102541.16;5069588;28;20297;-77
2022/10/12 04:57:41;;;;;;;;;;;;;;;8.64;65.44;102540.31;5069704;28;19931;-78
2022/10/12 05:00:07;;;;;;;;;;;;;;;8.65;65.68;102536.81;5069256;28;19924;-78
2022/10/12 05:02:34;;;;;;;;;;;;;;;8.66;65.96;102533.31;5073687;28;19920;-78
2022/10/12 05:05:00;;;;;;;;;;;;;;;8.67;65.51;102529.81;5069673;28;19921;-78
2022/10/12 05:07:26;;;;;;;;;;;;;;;8.71;65.32;102526.34;5071291;28;19969;-78
2022/10/12 05:09:54;;;;;;;;;;;;;;;8.72;65.85;102524.56;5070867;28;20006;-78
2022/10/12 05:12:20;;;;;;;;;;;;;;;8.73;66.18;102519.31;5068729;28;20401;-78
2022/10/12 05:14:46;;;;;;;;;;;;;;;8.77;65.69;102525.50;5070359;28;19955;-78
2022/10/12 05:17:12;;;;;;;;;;;;;;;8.81;65.56;102522.06;5070060;28;20018;-79
2022/10/12 05:19:38;;;;;;;;;;;;;;;8.83;65.76;102519.44;5071843;28;19982;-77
2022/10/12 05:22:04;;;;;;;;;;;;;;;8.84;65.87;102521.22;5072462;28;19963;-78
2022/10/12 05:24:30;;;;;;;;;;;;;;;8.85;65.82;102517.72;5068696;28;19973;-79
2022/10/12 05:26:56;;;;;;;;;;;;;;;8.87;65.52;102515.97;5068398;28;19939;-78
2022/10/12 05:29:22;;;;;;;;;;;;;;;8.86;65.64;102515.09;5071521;28;20389;-79
2022/10/12 05:31:48;;;;;;;;;;;;;;;8.87;65.94;102510.69;5067134;28;19917;-79
2022/10/12 05:34:14;;;;;;;;;;;;;;;8.86;65.88;102515.09;5063257;28;20027;-78
2022/10/12 05:36:40;;;;;;;;;;;;;;;8.87;65.58;102522.16;5060453;28;20374;-77
2022/10/12 05:39:06;;;;;;;;;;;;;;;8.86;65.74;102519.47;5070268;28;19958;-78
2022/10/12 05:41:32;;;;;;;;;;;;;;;8.84;66.05;102522.09;5060361;28;19924;-77
2022/10/12 05:43:58;;;;;;;;;;;;;;;8.82;65.98;102525.59;5066782;28;19965;-78
2022/10/12 05:46:24;;;;;;;;;;;;;;;8.80;65.60;102529.94;5068135;28;19962;-78
2022/10/12 05:48:50;;;;;;;;;;;;;;;8.77;66.07;102527.28;5071003;28;20269;-78
2022/10/12 05:51:16;;;;;;;;;;;;;;;8.74;65.87;102521.06;5071670;28;19925;-78
2022/10/12 05:53:42;;;;;;;;;;;;;;;8.72;65.92;102521.91;5070795;28;19924;-78
2022/10/12 05:56:08;;;;;;;;;;;;;;;8.71;65.28;102513.13;5071565;28;20300;-79
2022/10/12 05:58:34;;;;;;;;;;;;;;;8.69;65.41;102520.13;5068210;28;19921;-79
2022/10/12 06:01:05;;;;;;;;;;;;;;;8.68;65.64;102526.25;5068846;28;19917;-78
2022/10/12 06:03:31;;;;;;;;;;;;;;;8.68;65.28;102520.97;5068624;28;19916;-78
2022/10/12 06:05:57;;;;;;;;;;;;;;;8.67;65.70;102527.16;5069445;28;20551;-78
2022/10/12 06:08:23;;;;;;;;;;;;;;;8.67;65.51;102524.50;5068503;28;19916;-78
2022/10/12 06:10:50;;;;;;;;;;;;;;;8.67;66.06;102518.31;5068677;28;19916;-78
2022/10/12 06:13:18;;;;;;;;;;;;;;;8.67;65.96;102524.50;5073507;28;19916;-78
2022/10/12 06:15:45;;;;;;;;;;;;;;;8.68;65.87;102520.09;5074823;28;19920;-78
2022/10/12 06:18:12;;;;;;;;;;;;;;;8.69;65.36;102517.47;5072496;28;19916;-78
2022/10/12 06:20:37;;;;;;;;;;;;;;;8.70;66.02;102521.03;5064736;28;19928;-79
2022/10/12 06:23:04;;;;;;;;;;;;;;;8.69;66.14;102520.13;5072765;28;20275;-78
2022/10/12 06:25:30;;;;;;;;;;;;;;;8.71;65.57;102526.34;5074785;28;19982;-79
2022/10/12 06:27:56;;;;;;;;;;;;;;;8.70;65.46;102519.25;5071750;28;19920;-78
2022/10/12 06:30:22;;;;;;;;;;;;;;;8.70;65.86;102524.53;5074362;28;20462;-78
2022/10/12 06:32:48;;;;;;;;;;;;;;;8.70;65.80;102521.91;5071102;28;19916;-78
2022/10/12 06:35:14;;;;;;;;;;;;;;;8.72;65.73;102522.81;5070522;28;19931;-78
2022/10/12 06:37:40;;;;;;;;;;;;;;;8.79;65.44;102528.19;5074820;28;19924;-78
2022/10/12 06:40:06;;;;;;;;;;;;;;;8.80;65.50;102522.94;5072431;28;19917;-78
2022/10/12 06:42:32;;;;;;;;;;;;;;;8.83;65.93;102516.78;5074184;28;19923;-78
2022/10/12 06:44:58;;;;;;;;;;;;;;;8.86;65.60;102512.44;5073699;28;20282;-78
2022/10/12 06:47:24;;;;;;;;;;;;;;;8.90;65.37;102516.03;5072251;28;20041;-78
2022/10/12 06:49:50;;;;;;;;;;;;;;;8.92;66.05;102508.97;5067084;28;19931;-79
2022/10/12 06:52:16;;;;;;;;;;;;;;;8.98;66.10;102510.84;5070289;28;19923;-79
2022/10/12 06:54:42;;;;;;;;;;;;;;;9.01;65.78;102510.84;5070736;28;19939;-79
2022/10/12 06:57:08;;;;;;;;;;;;;;;9.06;65.92;102503.91;5069369;28;19963;-79
2022/10/12 06:59:34;;;;;;;;;;;;;;;9.12;65.93;102495.16;5066799;28;19932;-79
2022/10/12 07:02:01;;;;;;;;;;;;;;;9.17;65.98;102494.34;5069355;28;19916;-78
2022/10/12 07:04:27;;;;;;;;;;;;;;;9.22;66.11;102494.38;5070753;28;19919;-78
2022/10/12 07:06:53;;;;;;;;;;;;;;;9.30;65.81;102498.03;5072120;28;19928;-78
2022/10/12 07:09:19;;;;;;;;;;;;;;;9.37;65.66;102491.03;5066336;28;20302;-80
2022/10/12 07:11:45;;;;;;;;;;;;;;;9.45;65.80;102491.13;5073001;28;19925;-78
2022/10/12 07:14:11;;;;;;;;;;;;;;;9.51;66.05;102494.72;5070929;28;19933;-79
2022/10/12 07:16:37;;;;;;;;;;;;;;;9.58;65.91;102494.78;5067974;28;19916;-82
2022/10/12 07:19:03;;;;;;;;;;;;;;;9.64;65.83;102494.88;5069770;28;20003;-79
2022/10/12 07:21:29;;;;;;;;;;;;;;;9.68;66.04;102500.22;5062932;28;20553;-78
2022/10/12 07:23:55;;;;;;;;;;;;;;;9.74;65.86;102507.31;5067644;28;19923;-78
2022/10/12 07:26:21;;;;;;;;;;;;;;;9.79;66.10;102497.66;5070176;28;19920;-79
2022/10/12 07:28:48;;;;;;;;;;;;;;;9.84;66.16;102495.97;5070966;28;19999;-78
2022/10/12 07:31:14;;;;;;;;;;;;;;;9.86;65.97;102494.19;5072885;28;20447;-78
2022/10/12 07:33:40;;;;;;;;;;;;;;;9.89;65.83;102501.28;5069791;28;20389;-78
2022/10/12 07:36:06;;;;;;;;;;;;;;;9.91;65.89;102496.03;5074338;28;19924;-79
2022/10/12 07:38:32;;;;;;;;;;;;;;;9.93;66.00;102502.19;5070009;28;19919;-79
2022/10/12 07:40:59;;;;;;;;;;;;;;;9.93;65.85;102497.81;5073013;28;19913;-79
2022/10/12 07:43:26;;;;;;;;;;;;;;;9.94;65.95;102503.97;5072091;28;20643;-78
2022/10/12 07:45:55;;;;;;;;;;;;;;;9.95;65.44;102504.00;5071132;28;21034;-79
2022/10/12 07:48:21;;;;;;;;;;;;;;;9.96;65.67;102511.06;5065967;28;19921;-78
2022/10/12 07:50:47;;;;;;;;;;;;;;;9.98;65.67;102498.72;5069237;28;19924;-79
2022/10/12 07:53:14;;;;;;;;;;;;;;;9.98;65.67;102497.81;5066458;28;20406;-79
2022/10/12 07:55:41;;;;;;;;;;;;;;;10.00;65.67;102502.25;5070390;28;19921;-79
2022/10/12 07:58:08;;;;;;;;;;;;;;;10.03;65.70;102506.69;5071224;28;19924;-80
2022/10/12 08:00:34;;;;;;;;;;;;;;;10.07;65.98;102503.22;5071146;28;19924;-80
2022/10/12 08:03:00;;;;;;;;;;;;;;;10.13;65.91;102500.63;5071432;28;19916;-81
2022/10/12 08:05:29;;;;;;;;;;;;;;;10.17;66.04;102504.19;5075198;28;19916;-81
2022/10/12 08:07:55;;;;;;;;;;;;;;;10.24;66.20;102502.47;5071539;28;19916;-81
2022/10/12 08:10:21;;;;;;;;;;;;;;;10.29;66.09;102509.59;5073153;28;19921;-77
2022/10/12 08:12:47;;;;;;;;;;;;;;;10.36;66.56;102498.19;5070992;28;20335;-79
2022/10/12 08:15:16;;;;;;;;;;;;;;;10.45;66.53;102509.72;5074978;28;20011;-80
2022/10/12 08:17:42;;;;;;;;;;;;;;;10.54;66.52;102509.78;5072105;28;19912;-80
2022/10/12 08:20:08;;;;;;;;;;;;;;;10.64;66.72;102519.59;5071301;28;19938;-79
2022/10/12 08:22:34;;;;;;;;;;;;;;;10.72;66.70;102511.69;5071629;28;20637;-79
2022/10/12 08:25:00;;;;;;;;;;;;;;;10.82;66.76;102512.63;5071734;28;19921;-79
2022/10/12 08:27:29;;;;;;;;;;;;;;;10.92;66.83;102516.22;5073126;28;20003;-80
2022/10/12 08:29:55;;;;;;;;;;;;;;;11.00;66.89;102510.09;5071297;28;19951;-79
2022/10/12 08:32:21;;;;;;;;;;;;;;;11.14;66.73;102510.13;5065724;28;19916;-79
2022/10/12 08:34:47;;;;;;;;;;;;;;;11.22;66.62;102520.78;5068961;28;20011;-79
2022/10/12 08:37:13;;;;;;;;;;;;;;;11.31;66.78;102511.97;5068298;28;19924;-79
2022/10/12 08:39:39;;;;;;;;;;;;;;;11.44;66.02;102502.25;5069297;28;20385;-79
2022/10/12 08:47:30;;;;;;;;;;;;;;;11.84;66.09;102504.13;5069200;27;19975;-79
2022/10/12 08:49:57;;;;;;;;;;;;;;;11.96;65.96;102506.84;5061810;28;19922;-79
2022/10/12 08:52:28;;;;;;;;;;;;;;;12.09;65.95;102508.63;5056418;28;20114;-78
2022/10/12 08:54:57;;;;;;;;;;;;;;;12.20;66.17;102502.41;5061408;28;19940;-79
2022/10/12 08:57:23;;;;;;;;;;;;;;;12.29;65.38;102497.97;5056936;28;19979;-80
2022/10/12 08:59:49;;;;;;;;;;;;;;;12.41;65.51;102496.19;5063336;28;19963;-80
2022/10/12 09:02:35;;;;;;;;;;;;;;;12.53;65.75;102503.28;5065933;28;19921;-80
2022/10/12 09:05:06;;;;;;;;;;;;;;;12.64;64.74;102511.25;5059219;28;20359;-80
2022/10/12 09:07:38;;;;;;;;;;;;;;;12.75;64.53;102509.47;5052162;28;20047;-80
2022/10/12 09:10:24;;;;;;;;;;;;;;;12.90;64.71;102506.75;5051277;28;19924;-80
2022/10/12 09:12:55;;;;;;;;;;;;;;;13.10;63.92;102509.34;5056422;28;19917;-79
2022/10/12 09:15:23;;;;;;;;;;;;;;;13.16;64.07;102491.56;5063635;28;19920;-79
2022/10/12 09:17:54;;;;;;;;;;;;;;;13.26;63.77;102494.19;5060816;28;20007;-79
2022/10/12 09:20:25;;;;;;;;;;;;;;;13.29;62.82;102487.97;5057004;28;19917;-79
2022/10/12 09:22:54;;;;;;;;;;;;;;;13.37;63.16;102482.59;5058931;28;19917;-79
2022/10/12 09:25:23;;;;;;;;;;;;;;;13.49;63.40;102481.69;5055846;28;19929;-79
2022/10/12 09:27:50;;;;;;;;;;;;;;;13.56;63.04;102486.09;5057235;28;20043;-79
2022/10/12 09:30:17;;;;;;;;;;;;;;;13.64;63.14;102494.88;5061031;28;19924;-80
2022/10/12 09:33:03;;;;;;;;;;;;;;;13.75;62.91;102495.69;5055460;28;19917;-79
2022/10/12 09:35:29;;;;;;;;;;;;;;;13.86;62.51;102495.63;5058271;28;19925;-78
2022/10/12 09:37:55;;;;;;;;;;;;;;;13.97;62.56;102505.31;5057087;28;19943;-78
2022/10/12 09:40:25;;;;;;;;;;;;;;;14.13;62.17;102507.00;5055487;28;19949;-77
2022/10/12 09:42:52;;;;;;;;;;;;;;;14.19;61.62;102506.03;5055020;28;20326;-78
2022/10/12 09:45:19;;;;;;;;;;;;;;;14.24;61.19;102510.44;5058166;28;19974;-78
2022/10/12 09:48:05;;;;;;;;;;;;;;;14.34;60.99;102515.69;5074414;28;19916;-77
2022/10/12 09:50:48;;;;;;;;;;;;;;;14.43;61.04;102504.94;5075551;28;19925;-78
2022/10/12 09:53:20;;;;;;;;;;;;;;;14.54;60.89;102505.72;5077014;28;19939;-78
2022/10/12 09:55:55;;;;;;;;;;;;;;;14.61;60.82;102492.31;5076352;28;20007;-78
2022/10/12 09:58:21;;;;;;;;;;;;;;;14.67;59.88;102492.28;5067840;28;20256;-78
2022/10/12 10:01:08;;;;;;;;;;;;;;;14.78;60.38;102485.06;5064115;28;20015;-78
2022/10/12 10:03:34;;;;;;;;;;;;;;;14.90;59.71;102484.00;5060672;28;19991;-78
2022/10/12 10:06:01;;;;;;;;;;;;;;;14.98;60.25;102473.28;5061931;28;19974;-79
2022/10/12 10:08:27;;;;;;;;;;;;;;;15.07;59.71;102469.59;5064174;28;20374;-80
2022/10/12 10:10:55;;;;;;;;;;;;;;;15.15;59.80;102473.94;5062904;28;19974;-80
2022/10/12 10:13:24;;;;;;;;;;;;;;;15.22;58.71;102466.72;5063444;28;19924;-80
2022/10/12 10:15:54;;;;;;;;;;;;;;;15.31;59.61;102463.03;5064008;28;19925;-79
2022/10/12 10:18:23;;;;;;;;;;;;;;;15.40;59.33;102456.69;5063456;28;20380;-79
2022/10/12 10:20:54;;;;;;;;;;;;;;;15.50;59.01;102448.50;5058042;28;19916;-80
2022/10/12 10:23:25;;;;;;;;;;;;;;;15.57;57.85;102443.94;5064651;28;19924;-79
2022/10/12 10:25:56;;;;;;;;;;;;;;;15.64;58.28;102445.63;5062392;28;19936;-79
2022/10/12 10:28:26;;;;;;;;;;;;;;;15.67;57.38;102439.34;5063789;28;19928;-79
